Time;durP1;ratioP1;P1;durP2;ratioP2;P2;SDS_P1;SDS_P2;PMS_P1;PMS_P2;Temp;Humidity;BMP_temperature;BMP_pressure;BME280_temperature;BME280_humidity;BME280_pressure;Samples;Min_cycle;Max_cycle;Signal;HPM_P1;HPM_P2
2021/07/07 00:01:39;;;;;;;10.25;2.92;;;;;;;12.95;92.89;99953.38;4988818;28;20038;-80
2021/07/07 00:04:04;;;;;;;9.32;3.05;;;;;;;12.88;92.89;99950.69;4974596;28;20026;-81
2021/07/07 00:06:30;;;;;;;13.05;3.20;;;;;;;12.92;93.06;99951.94;4982307;28;20052;-79
2021/07/07 00:08:56;;;;;;;8.85;3.03;;;;;;;12.86;92.74;99952.78;4986311;28;20030;-82
2021/07/07 00:11:21;;;;;;;17.35;4.05;;;;;;;12.76;92.78;99938.91;4989907;28;20029;-81
2021/07/07 00:13:46;;;;;;;11.45;3.40;;;;;;;12.88;92.93;99960.66;5000269;28;20877;-80
2021/07/07 00:16:12;;;;;;;9.90;3.35;;;;;;;12.90;92.94;99958.56;4975056;28;20034;-81
2021/07/07 00:18:37;;;;;;;12.07;3.17;;;;;;;12.92;93.16;99972.69;4982196;28;20050;-80
2021/07/07 00:21:03;;;;;;;8.93;3.63;;;;;;;12.90;93.13;99969.38;4976800;28;20402;-81
2021/07/07 00:23:30;;;;;;;10.23;3.35;;;;;;;12.84;93.24;99964.81;4987183;28;20026;-81
2021/07/07 00:25:56;;;;;;;11.82;3.45;;;;;;;12.90;93.54;99975.59;4976362;28;20386;-81
2021/07/07 00:28:22;;;;;;;10.80;3.42;;;;;;;12.86;93.46;99970.81;5007685;28;20048;-80
2021/07/07 00:30:49;;;;;;;12.45;3.13;;;;;;;12.80;93.26;99960.88;4992171;28;20026;-80
2021/07/07 00:33:15;;;;;;;9.10;3.45;;;;;;;12.88;93.46;99969.56;4989415;28;20037;-80
2021/07/07 00:35:40;;;;;;;11.65;3.50;;;;;;;12.86;93.64;99979.75;4990185;28;20390;-81
2021/07/07 00:38:07;;;;;;;9.30;3.33;;;;;;;12.82;93.73;99970.41;4977135;28;20049;-82
2021/07/07 00:40:32;;;;;;;11.10;3.10;;;;;;;12.86;93.69;99978.91;5003133;28;20026;-81
2021/07/07 00:42:57;;;;;;;11.50;3.53;;;;;;;12.84;93.66;99972.91;4990013;28;20037;-81
2021/07/07 00:45:23;;;;;;;7.47;2.83;;;;;;;12.84;93.88;99964.81;5012566;28;20485;-80
2021/07/07 00:47:49;;;;;;;11.73;3.55;;;;;;;12.91;93.60;99976.41;4972494;28;20573;-81
2021/07/07 00:50:16;;;;;;;14.48;3.83;;;;;;;12.86;93.63;99968.97;5007865;28;20160;-81
2021/07/07 00:52:41;;;;;;;15.25;4.38;;;;;;;12.88;93.98;99980.38;4994451;28;20033;-81
2021/07/07 00:55:15;;;;;;;14.65;3.97;;;;;;;12.90;93.85;99980.16;4977140;28;20019;-81
2021/07/07 00:57:44;;;;;;;18.38;4.70;;;;;;;12.85;93.89;99978.09;4994432;28;20018;-81
2021/07/07 01:00:14;;;;;;;13.43;4.82;;;;;;;12.86;93.99;99985.16;4974740;28;20022;-81
2021/07/07 01:02:44;;;;;;;10.70;3.92;;;;;;;12.82;94.07;99981.22;4973590;28;20033;-81
2021/07/07 01:05:11;;;;;;;13.88;3.70;;;;;;;12.79;94.63;99978.94;4983312;28;20026;-80
2021/07/07 01:07:37;;;;;;;13.20;4.38;;;;;;;12.76;94.35;99971.25;4952265;28;1207817;-82
2021/07/07 01:10:04;;;;;;;12.80;3.88;;;;;;;12.80;94.75;99982.47;4996313;28;20026;-80
2021/07/07 01:12:32;;;;;;;12.95;3.83;;;;;;;12.83;94.74;99985.56;4993234;28;20037;-80
2021/07/07 01:14:57;;;;;;;10.90;3.47;;;;;;;12.81;94.69;99984.09;4993134;28;20019;-81
2021/07/07 01:17:29;;;;;;;14.70;3.30;;;;;;;12.85;94.63;99988.06;4989085;28;20022;-82
2021/07/07 01:19:55;;;;;;;10.80;3.38;;;;;;;12.90;94.68;99990.97;4998087;28;20093;-80
2021/07/07 01:22:21;;;;;;;9.95;3.60;;;;;;;12.93;94.68;99990.53;4990902;28;21795;-81
2021/07/07 01:24:46;;;;;;;8.30;3.55;;;;;;;12.93;94.62;99993.22;4988657;28;20556;-81
2021/07/07 01:27:12;;;;;;;10.25;3.53;;;;;;;12.85;94.91;99988.06;4993845;28;20945;-81
2021/07/07 01:29:37;;;;;;;9.82;3.40;;;;;;;12.88;94.66;99983.06;5009346;28;20026;-81
2021/07/07 01:32:03;;;;;;;9.98;2.78;;;;;;;12.96;94.85;99993.63;4970521;28;20116;-80
2021/07/07 01:34:28;;;;;;;11.52;3.33;;;;;;;12.99;94.63;99986.97;4976471;28;20093;-81
2021/07/07 01:36:54;;;;;;;11.98;3.17;;;;;;;12.98;95.00;99994.25;4994693;28;20025;-80
2021/07/07 01:39:20;;;;;;;7.03;2.72;;;;;;;13.01;94.95;99997.59;4981912;28;20079;-81
2021/07/07 01:41:46;;;;;;;5.72;2.50;;;;;;;13.04;94.46;100008.78;4989747;28;20022;-81
2021/07/07 01:44:12;;;;;;;7.05;3.58;;;;;;;13.01;94.68;100001.09;4973050;28;20045;-81
2021/07/07 01:46:37;;;;;;;12.05;3.00;;;;;;;13.04;94.79;100000.69;4984907;28;20529;-80
2021/07/07 01:49:04;;;;;;;9.55;2.47;;;;;;;13.01;94.87;100002.97;4990823;28;20029;-81
2021/07/07 01:51:29;;;;;;;7.57;2.85;;;;;;;13.07;94.62;100008.38;4990393;28;20104;-81
2021/07/07 01:53:55;;;;;;;6.25;2.20;;;;;;;13.09;94.59;100013.53;4994891;28;20109;-80
2021/07/07 01:56:20;;;;;;;7.38;2.30;;;;;;;13.07;94.73;100012.91;5002719;28;20149;-81
2021/07/07 01:58:45;;;;;;;8.75;2.78;;;;;;;13.05;94.97;100007.75;4992005;28;20030;-81
2021/07/07 02:01:12;;;;;;;5.50;2.15;;;;;;;13.05;94.64;100015.84;4994144;28;20034;-81
2021/07/07 02:03:37;;;;;;;5.68;2.17;;;;;;;13.02;94.83;100010.88;4991730;28;20648;-81
2021/07/07 02:06:03;;;;;;;5.13;1.90;;;;;;;13.09;94.96;100032.44;5008133;28;20045;-81
2021/07/07 02:08:28;;;;;;;5.95;1.98;;;;;;;12.97;95.10;100014.19;5001329;28;20082;-80
2021/07/07 02:10:54;;;;;;;3.53;1.80;;;;;;;13.07;94.88;100024.56;4987457;28;20022;-81
2021/07/07 02:13:20;;;;;;;5.93;2.10;;;;;;;13.05;95.26;100025.81;4988728;28;20057;-81
2021/07/07 02:15:46;;;;;;;3.83;1.60;;;;;;;13.06;95.06;100032.88;4973112;28;22464;-81
2021/07/07 02:18:11;;;;;;;4.22;1.75;;;;;;;13.09;95.11;100033.25;4986829;28;20159;-81
2021/07/07 02:20:40;;;;;;;6.43;2.40;;;;;;;13.00;95.06;100021.03;4988442;28;20064;-80
2021/07/07 02:23:10;;;;;;;5.80;1.90;;;;;;;13.08;95.22;100033.50;4990925;28;20128;-81
2021/07/07 02:25:36;;;;;;;6.57;2.30;;;;;;;13.08;95.17;100038.88;4994704;28;20043;-81
2021/07/07 02:28:03;;;;;;;6.80;1.98;;;;;;;13.09;95.02;100043.25;4979415;28;20030;-81
2021/07/07 02:30:32;;;;;;;10.55;3.53;;;;;;;13.08;95.13;100045.13;5010572;28;20880;-80
2021/07/07 02:32:58;;;;;;;6.65;2.83;;;;;;;13.02;94.70;100032.47;4988031;28;20037;-81
2021/07/07 02:35:27;;;;;;;7.43;2.38;;;;;;;13.08;94.82;100053.22;4986381;28;20033;-80
2021/07/07 02:37:55;;;;;;;8.85;2.88;;;;;;;13.05;95.05;100055.50;4985071;28;20379;-79
2021/07/07 02:40:23;;;;;;;7.47;2.63;;;;;;;13.00;95.21;100047.19;4986528;28;20057;-80
2021/07/07 02:42:49;;;;;;;7.28;2.42;;;;;;;13.06;95.51;100059.84;4983790;28;20019;-81
2021/07/07 02:45:15;;;;;;;8.40;3.25;;;;;;;13.08;95.12;100061.31;4981295;28;20069;-81
2021/07/07 02:47:41;;;;;;;8.52;2.88;;;;;;;13.05;95.16;100064.44;4963855;28;20418;-82
2021/07/07 02:50:08;;;;;;;6.38;2.17;;;;;;;13.03;95.21;100057.56;4996723;28;20026;-81
2021/07/07 02:52:35;;;;;;;6.43;2.55;;;;;;;13.07;94.95;100077.69;4974563;28;20034;-81
2021/07/07 02:55:01;;;;;;;4.97;2.20;;;;;;;13.08;94.79;100079.38;4987420;28;20121;-81
2021/07/07 02:57:26;;;;;;;6.30;2.35;;;;;;;13.06;94.91;100079.56;5001682;28;20029;-81
2021/07/07 02:59:51;;;;;;;5.63;2.33;;;;;;;12.87;94.99;100050.75;4978769;28;20441;-81
2021/07/07 03:02:17;;;;;;;4.50;1.95;;;;;;;13.07;95.02;100088.50;4984908;28;20049;-82
2021/07/07 03:04:42;;;;;;;5.88;2.63;;;;;;;13.06;94.91;100087.66;5001897;28;20458;-80
2021/07/07 03:07:08;;;;;;;8.27;2.65;;;;;;;13.11;94.89;100095.16;4990721;28;20025;-81
2021/07/07 03:09:33;;;;;;;6.18;2.88;;;;;;;13.10;94.81;100090.78;4989789;28;20508;-80
2021/07/07 03:11:59;;;;;;;7.78;2.83;;;;;;;13.15;94.63;100090.97;4974179;28;20026;-80
2021/07/07 03:14:24;;;;;;;9.52;3.40;;;;;;;13.15;94.60;100104.47;4988045;28;20040;-81
2021/07/07 03:16:50;;;;;;;8.98;2.67;;;;;;;13.14;94.52;100105.53;4998139;28;20136;-82
2021/07/07 03:19:15;;;;;;;7.15;2.65;;;;;;;13.09;94.60;100100.75;4992311;28;20455;-81
2021/07/07 03:21:40;;;;;;;6.80;2.85;;;;;;;13.00;94.50;100079.59;4975483;28;20506;-81
2021/07/07 03:24:07;;;;;;;7.82;2.78;;;;;;;13.05;94.85;100094.13;4989009;28;20053;-81
2021/07/07 03:26:33;;;;;;;9.68;2.88;;;;;;;12.93;94.92;100084.97;5004433;28;20026;-81
2021/07/07 03:28:58;;;;;;;7.90;2.70;;;;;;;13.10;94.97;100110.50;4997059;28;20022;-81
2021/07/07 03:31:24;;;;;;;7.25;3.40;;;;;;;13.07;94.37;100110.94;4997878;28;20021;-81
2021/07/07 03:33:49;;;;;;;7.85;3.30;;;;;;;13.06;95.02;100117.34;4977461;28;20028;-81
2021/07/07 03:36:15;;;;;;;8.05;3.47;;;;;;;13.08;94.54;100114.47;4989489;28;20034;-81
2021/07/07 03:38:40;;;;;;;8.55;3.13;;;;;;;13.07;94.59;100119.03;4993010;28;20034;-81
2021/07/07 03:41:05;;;;;;;7.57;3.40;;;;;;;13.06;94.57;100108.44;4995455;28;20026;-81
2021/07/07 03:43:31;;;;;;;7.63;2.92;;;;;;;13.08;94.42;100117.97;4984321;28;20030;-80
2021/07/07 03:45:56;;;;;;;9.90;3.83;;;;;;;13.05;94.41;100125.69;4996609;28;20020;-81
2021/07/07 03:48:22;;;;;;;7.47;2.78;;;;;;;13.10;94.41;100133.97;4988286;28;20029;-81
2021/07/07 03:50:47;;;;;;;11.02;3.20;;;;;;;13.08;94.52;100133.34;4990641;28;20041;-80
2021/07/07 03:53:13;;;;;;;10.60;3.13;;;;;;;13.11;94.44;100141.03;4993996;28;20081;-81
2021/07/07 03:55:38;;;;;;;7.03;3.05;;;;;;;13.11;94.65;100141.84;5007633;28;20026;-80
2021/07/07 03:58:04;;;;;;;9.45;3.55;;;;;;;13.11;94.66;100141.84;4971267;28;20037;-81
2021/07/07 04:00:30;;;;;;;10.63;3.85;;;;;;;13.10;94.80;100153.69;5009027;28;20080;-81
2021/07/07 04:02:57;;;;;;;7.45;3.15;;;;;;;13.07;94.42;100145.16;4994767;28;20030;-81
2021/07/07 04:05:23;;;;;;;8.02;3.15;;;;;;;13.08;94.50;100150.38;4978071;28;20069;-81
2021/07/07 04:07:49;;;;;;;8.38;3.50;;;;;;;13.08;94.37;100158.47;4990336;28;20034;-81
2021/07/07 04:10:17;;;;;;;11.02;4.20;;;;;;;13.13;94.06;100161.38;4989449;28;20494;-80
2021/07/07 04:12:43;;;;;;;7.20;3.20;;;;;;;13.07;94.09;100156.81;4985458;28;20113;-80
2021/07/07 04:15:13;;;;;;;7.38;3.10;;;;;;;13.09;94.08;100162.81;4983197;28;20026;-80
2021/07/07 04:17:39;;;;;;;8.70;3.10;;;;;;;13.07;94.01;100164.91;4987101;28;20025;-81
2021/07/07 04:20:07;;;;;;;9.68;3.40;;;;;;;13.07;93.86;100174.84;4972478;28;20022;-81
2021/07/07 04:22:33;;;;;;;8.32;2.70;;;;;;;13.06;93.95;100173.22;4989485;28;20025;-79
2021/07/07 04:24:58;;;;;;;9.27;2.92;;;;;;;12.93;93.79;100164.06;4973090;28;20569;-80
2021/07/07 04:27:24;;;;;;;6.45;2.75;;;;;;;13.03;93.99;100190.66;4972814;28;20029;-80
2021/07/07 04:29:49;;;;;;;10.25;3.20;;;;;;;12.89;93.84;100170.91;5001468;28;20455;-79
2021/07/07 04:32:16;;;;;;;8.23;3.13;;;;;;;12.96;93.82;100187.09;4972521;28;20042;-82
2021/07/07 04:34:43;;;;;;;8.18;3.20;;;;;;;12.97;94.00;100192.31;4988150;28;20041;-81
2021/07/07 04:37:09;;;;;;;7.82;2.92;;;;;;;12.94;93.91;100191.88;4984144;28;20022;-81
2021/07/07 04:39:34;;;;;;;6.63;3.00;;;;;;;12.96;93.89;100198.72;4974922;28;20029;-80
2021/07/07 04:41:59;;;;;;;7.22;3.00;;;;;;;12.90;93.79;100198.72;5001158;28;20040;-81
2021/07/07 04:44:25;;;;;;;6.95;2.95;;;;;;;12.91;94.06;100205.75;4981750;28;20030;-81
2021/07/07 04:46:50;;;;;;;12.63;3.80;;;;;;;12.90;93.78;100207.63;4966885;28;20807;-81
2021/07/07 04:49:16;;;;;;;10.13;3.90;;;;;;;12.94;94.06;100217.00;4981793;28;20030;-81
2021/07/07 04:51:41;;;;;;;8.00;2.90;;;;;;;12.92;93.83;100213.66;5002294;28;20021;-81
2021/07/07 04:54:07;;;;;;;6.57;2.97;;;;;;;12.90;93.89;100213.03;4980649;28;20113;-81
2021/07/07 04:56:32;;;;;;;7.85;3.50;;;;;;;12.91;93.92;100222.81;4983572;28;20037;-81
2021/07/07 04:58:58;;;;;;;9.05;3.70;;;;;;;12.91;93.89;100227.34;4986547;28;20025;-82
2021/07/07 05:01:23;;;;;;;8.13;2.92;;;;;;;12.90;94.04;100233.78;4986709;28;20300;-81
2021/07/07 05:03:49;;;;;;;8.30;3.22;;;;;;;12.87;94.28;100226.13;4972834;28;20033;-81
2021/07/07 05:06:14;;;;;;;8.77;3.28;;;;;;;12.90;93.96;100234.63;4985534;28;20111;-80
2021/07/07 05:08:40;;;;;;;9.52;2.92;;;;;;;12.91;94.01;100240.84;4978315;28;20037;-81
2021/07/07 05:11:05;;;;;;;8.32;2.95;;;;;;;12.91;93.77;100252.50;4983882;28;20026;-81
2021/07/07 05:13:32;;;;;;;10.15;2.97;;;;;;;12.94;93.96;100256.66;5001466;28;20036;-80
2021/07/07 05:15:58;;;;;;;6.45;2.80;;;;;;;12.93;93.73;100261.19;4982221;28;20422;-82
2021/07/07 05:18:24;;;;;;;8.45;3.40;;;;;;;12.89;93.65;100262.66;4980862;28;20040;-80
2021/07/07 05:20:49;;;;;;;7.65;3.08;;;;;;;12.84;93.92;100257.03;4987893;28;20022;-81
2021/07/07 05:23:15;;;;;;;9.88;3.33;;;;;;;12.85;93.65;100263.25;4993156;28;20038;-81
2021/07/07 05:25:41;;;;;;;5.85;2.92;;;;;;;12.79;93.55;100261.38;4970709;28;20029;-81
2021/07/07 05:28:07;;;;;;;7.20;3.05;;;;;;;12.80;93.46;100276.50;4990393;28;20934;-81
2021/07/07 05:30:33;;;;;;;9.48;3.05;;;;;;;12.74;93.59;100273.59;5012208;28;20061;-81
2021/07/07 05:33:00;;;;;;;7.95;3.15;;;;;;;12.76;93.79;100279.63;4993773;28;20022;-81
2021/07/07 05:35:26;;;;;;;7.85;3.53;;;;;;;12.69;93.35;100275.22;5008860;28;20033;-81
2021/07/07 05:37:52;;;;;;;6.13;3.10;;;;;;;12.75;93.64;100277.13;5012821;28;20496;-81
2021/07/07 05:40:18;;;;;;;10.00;3.80;;;;;;;12.73;93.54;100285.44;4988816;28;20041;-81
2021/07/07 05:42:49;;;;;;;8.57;3.05;;;;;;;12.77;93.59;100292.06;4997031;28;20038;-82
2021/07/07 05:45:15;;;;;;;9.88;3.38;;;;;;;12.73;93.05;100284.59;4984949;28;20030;-81
2021/07/07 05:47:40;;;;;;;9.00;3.13;;;;;;;12.77;92.87;100288.53;4991292;28;20081;-81
2021/07/07 05:50:06;;;;;;;8.48;3.53;;;;;;;12.71;92.83;100289.34;4990684;28;20105;-81
2021/07/07 05:52:32;;;;;;;5.00;2.58;;;;;;;12.68;93.10;100290.59;4995389;28;20032;-81
2021/07/07 05:54:57;;;;;;;6.47;2.90;;;;;;;12.68;93.13;100293.28;4975446;28;20022;-81
2021/07/07 05:57:39;;;;;;;8.80;3.17;;;;;;;12.64;93.37;100297.41;5006846;28;20506;-81
2021/07/07 06:00:11;;;;;;;10.77;3.05;;;;;;;12.62;93.16;100302.19;4990955;28;20034;-81
2021/07/07 06:02:37;;;;;;;8.38;3.05;;;;;;;12.59;93.25;100302.56;5008579;28;20033;-81
2021/07/07 06:05:04;;;;;;;8.48;3.28;;;;;;;12.64;93.35;100301.97;4991590;28;20151;-82
2021/07/07 06:07:30;;;;;;;6.05;3.05;;;;;;;12.63;93.14;100306.53;4981687;28;21007;-81
2021/07/07 06:09:55;;;;;;;7.90;3.17;;;;;;;12.64;93.23;100305.50;4990608;28;20091;-81
2021/07/07 06:12:20;;;;;;;7.03;3.10;;;;;;;12.77;92.88;100319.03;4987221;28;20409;-81
2021/07/07 06:14:46;;;;;;;10.43;3.72;;;;;;;12.85;92.84;100323.44;4986835;28;20064;-80
2021/07/07 06:17:11;;;;;;;8.90;3.60;;;;;;;12.94;92.66;100327.66;4976564;28;20088;-81
2021/07/07 06:19:37;;;;;;;7.60;3.28;;;;;;;13.06;92.42;100321.66;4989319;28;20036;-81
2021/07/07 06:22:02;;;;;;;7.88;3.55;;;;;;;13.12;92.21;100324.34;5012645;28;20501;-81
2021/07/07 06:24:28;;;;;;;8.02;2.92;;;;;;;13.25;91.91;100322.75;4995127;28;20085;-81
2021/07/07 06:26:54;;;;;;;8.20;4.05;;;;;;;13.35;91.79;100329.44;5014506;28;20028;-80
2021/07/07 06:29:19;;;;;;;6.70;3.40;;;;;;;13.36;91.83;100314.06;5000224;28;20026;-80
2021/07/07 06:31:45;;;;;;;9.05;3.88;;;;;;;13.56;91.47;100319.50;5008754;28;20026;-80
2021/07/07 06:34:11;;;;;;;12.75;3.53;;;;;;;13.70;90.95;100333.84;4999738;28;20038;-80
2021/07/07 06:36:37;;;;;;;6.55;3.42;;;;;;;13.76;90.81;100330.31;4990898;28;20022;-80
2021/07/07 06:39:03;;;;;;;8.25;3.83;;;;;;;13.84;90.60;100336.38;4985931;28;20026;-81
2021/07/07 06:41:28;;;;;;;7.72;3.78;;;;;;;13.95;90.28;100334.09;4973765;28;20042;-81
2021/07/07 06:43:53;;;;;;;6.07;3.53;;;;;;;14.04;89.79;100343.63;5007195;28;20030;-80
2021/07/07 06:46:19;;;;;;;6.70;3.35;;;;;;;14.11;89.48;100340.94;5011733;28;20067;-81
2021/07/07 06:48:44;;;;;;;9.80;4.10;;;;;;;14.20;89.47;100348.63;4992092;28;20044;-81
2021/07/07 06:51:10;;;;;;;6.85;3.30;;;;;;;14.32;89.30;100354.22;4990907;28;20037;-80
2021/07/07 06:53:35;;;;;;;6.68;3.33;;;;;;;14.45;88.97;100370.44;4995484;28;20022;-80
2021/07/07 06:56:01;;;;;;;6.90;2.97;;;;;;;14.50;88.73;100369.78;4981973;28;20414;-81
2021/07/07 06:58:26;;;;;;;7.10;3.40;;;;;;;14.61;88.63;100379.19;4983648;28;20037;-82
2021/07/07 07:00:52;;;;;;;9.70;3.25;;;;;;;14.60;88.56;100389.16;4985488;28;20030;-82
2021/07/07 07:03:17;;;;;;;7.80;3.70;;;;;;;14.49;88.24;100387.88;4982942;28;20433;-81
2021/07/07 07:05:43;;;;;;;9.02;3.10;;;;;;;14.46;88.01;100391.03;4988852;28;20114;-81
2021/07/07 07:08:12;;;;;;;6.80;3.17;;;;;;;14.37;87.80;100392.28;4987510;28;20041;-81
2021/07/07 07:10:38;;;;;;;6.22;3.10;;;;;;;14.33;88.25;100399.16;4994455;28;20431;-81
2021/07/07 07:13:04;;;;;;;9.50;3.22;;;;;;;14.33;88.34;100392.91;5002633;28;20392;-81
2021/07/07 07:15:29;;;;;;;4.93;2.97;;;;;;;14.27;88.41;100394.59;4980817;28;20103;-80
2021/07/07 07:17:55;;;;;;;6.90;3.45;;;;;;;14.28;88.30;100407.06;4995458;28;20030;-81
2021/07/07 07:20:25;;;;;;;8.68;3.47;;;;;;;14.14;88.30;100398.13;4989450;28;20029;-81
2021/07/07 07:22:50;;;;;;;7.22;3.45;;;;;;;14.12;88.42;100400.19;4987244;28;20030;-80
2021/07/07 07:25:16;;;;;;;5.35;3.05;;;;;;;14.16;88.27;100408.75;4998828;28;20026;-81
2021/07/07 07:27:42;;;;;;;5.70;3.05;;;;;;;14.30;88.03;100418.50;4983640;28;20121;-81
2021/07/07 07:30:09;;;;;;;6.90;3.42;;;;;;;14.34;88.13;100417.03;4974404;28;20112;-81
2021/07/07 07:32:34;;;;;;;7.55;3.55;;;;;;;14.46;88.00;100426.19;4980294;28;20038;-81
2021/07/07 07:35:00;;;;;;;6.10;2.85;;;;;;;14.59;87.70;100429.97;5006667;28;20027;-81
2021/07/07 07:37:35;;;;;;;4.35;2.50;;;;;;;14.60;86.99;100428.91;5008012;28;20022;-81
2021/07/07 07:40:01;;;;;;;4.88;2.55;;;;;;;14.69;86.43;100433.91;5001493;28;20038;-80
2021/07/07 07:42:26;;;;;;;5.55;2.83;;;;;;;14.88;85.80;100450.31;5020355;28;20230;-81
2021/07/07 07:44:52;;;;;;;4.57;2.55;;;;;;;15.01;85.54;100446.75;5003095;28;20057;-80
2021/07/07 07:47:17;;;;;;;4.10;2.70;;;;;;;15.13;85.47;100455.84;5003764;28;20033;-81
2021/07/07 07:49:43;;;;;;;5.05;2.47;;;;;;;15.23;85.29;100453.53;4987112;28;20029;-81
2021/07/07 07:52:09;;;;;;;4.90;2.28;;;;;;;15.35;85.46;100465.38;4983198;28;20053;-81
2021/07/07 07:54:35;;;;;;;4.57;2.72;;;;;;;15.39;85.27;100457.66;4983780;28;20140;-81
2021/07/07 07:57:01;;;;;;;5.50;2.53;;;;;;;15.34;84.71;100463.69;5001165;28;20076;-81
2021/07/07 07:59:27;;;;;;;4.18;2.53;;;;;;;15.42;84.49;100475.34;4983915;28;20049;-81
2021/07/07 08:01:52;;;;;;;5.53;2.10;;;;;;;15.47;84.04;100478.25;4999078;28;20065;-82
2021/07/07 08:04:19;;;;;;;4.18;2.47;;;;;;;15.51;84.21;100482.22;4992607;28;20045;-81
2021/07/07 08:06:45;;;;;;;12.73;3.10;;;;;;;15.59;84.66;100488.19;5010952;28;20026;-82
2021/07/07 08:09:10;;;;;;;5.00;2.53;;;;;;;15.75;84.69;100489.63;4993077;28;20034;-81
2021/07/07 08:11:36;;;;;;;3.88;2.08;;;;;;;16.06;83.81;100493.38;4979359;28;20061;-81
2021/07/07 08:14:01;;;;;;;3.63;2.28;;;;;;;16.19;83.46;100504.16;4993408;28;20056;-81
2021/07/07 08:16:27;;;;;;;5.00;2.45;;;;;;;16.32;82.97;100496.97;4980539;28;20026;-81
2021/07/07 08:18:52;;;;;;;4.13;2.10;;;;;;;16.33;83.15;100504.09;4990442;28;20057;-81
2021/07/07 08:21:19;;;;;;;4.57;2.10;;;;;;;16.31;83.21;100512.44;4984472;28;20069;-80
2021/07/07 08:23:45;;;;;;;14.38;2.63;;;;;;;16.26;83.59;100507.66;4998958;28;20026;-81
2021/07/07 08:26:11;;;;;;;4.65;2.25;;;;;;;16.33;83.63;100506.81;4996301;28;20026;-81
2021/07/07 08:28:36;;;;;;;4.10;1.98;;;;;;;16.65;81.60;100508.41;5000725;28;20024;-82
2021/07/07 08:31:02;;;;;;;3.25;1.55;;;;;;;16.73;81.09;100518.16;4983488;28;20044;-81
2021/07/07 08:33:28;;;;;;;2.50;1.50;;;;;;;16.76;81.16;100519.59;5015588;28;20052;-81
2021/07/07 08:35:53;;;;;;;5.68;1.70;;;;;;;16.75;80.45;100523.34;4985401;28;20030;-81
2021/07/07 08:38:19;;;;;;;4.63;2.08;;;;;;;16.65;80.31;100507.59;4993030;28;20072;-81
2021/07/07 08:40:44;;;;;;;3.53;1.83;;;;;;;16.81;79.40;100498.91;4990643;28;20394;-81
2021/07/07 08:43:09;;;;;;;2.63;1.70;;;;;;;17.08;79.06;100520.38;5005425;28;20622;-81
2021/07/07 08:45:35;;;;;;;4.10;2.08;;;;;;;17.14;78.59;100524.91;4983848;28;20490;-81
2021/07/07 08:48:01;;;;;;;2.80;1.80;;;;;;;17.31;78.00;100527.88;4971809;28;20475;-81
2021/07/07 08:50:31;;;;;;;4.13;1.77;;;;;;;17.33;77.40;100523.88;4988389;28;20018;-81
2021/07/07 08:52:59;;;;;;;3.28;1.75;;;;;;;17.62;76.55;100531.47;5020354;28;20029;-81
2021/07/07 08:55:25;;;;;;;3.22;1.67;;;;;;;17.76;77.03;100524.81;4987995;28;20023;-81
2021/07/07 08:57:51;;;;;;;3.70;1.90;;;;;;;17.97;76.66;100510.75;4997849;28;20014;-81
2021/07/07 09:00:21;;;;;;;5.90;2.10;;;;;;;17.78;76.20;100536.28;4994239;28;20025;-81
2021/07/07 09:03:11;;;;;;;4.25;2.25;;;;;;;17.53;76.37;100544.53;4985498;28;20018;-81
2021/07/07 09:05:53;;;;;;;7.88;2.63;;;;;;;17.30;76.90;100551.47;5000945;28;20038;-81
2021/07/07 09:08:35;;;;;;;5.00;2.35;;;;;;;17.27;77.03;100559.25;4977421;28;20033;-81
2021/07/07 09:11:21;;;;;;;4.60;2.22;;;;;;;17.49;77.31;100556.91;4981837;28;20022;-81
2021/07/07 09:14:07;;;;;;;5.32;2.42;;;;;;;17.49;77.53;100557.78;5001180;28;20057;-81
2021/07/07 09:16:47;;;;;;;6.35;2.25;;;;;;;17.29;77.27;100559.88;4981716;28;20622;-81
2021/07/07 09:19:16;;;;;;;4.90;2.47;;;;;;;17.06;77.64;100569.47;4999251;28;20094;-81
2021/07/07 09:21:47;;;;;;;6.80;2.92;;;;;;;16.82;78.53;100568.44;4978761;28;20204;-81
2021/07/07 09:24:18;;;;;;;7.90;2.83;;;;;;;16.62;79.27;100575.91;4999848;28;20026;-81
2021/07/07 09:26:43;;;;;;;6.38;2.83;;;;;;;16.47;79.72;100581.63;4996065;28;20022;-81
2021/07/07 09:29:09;;;;;;;6.13;2.85;;;;;;;16.40;80.17;100581.66;5009775;28;20421;-81
2021/07/07 09:31:41;;;;;;;5.07;2.78;;;;;;;16.46;80.47;100580.81;4977619;28;20034;-81
2021/07/07 09:34:24;;;;;;;6.80;3.67;;;;;;;16.56;80.49;100574.88;4994324;28;20029;-81
2021/07/07 09:36:54;;;;;;;7.80;3.22;;;;;;;16.65;80.58;100584.41;4998808;28;20033;-81
2021/07/07 09:39:20;;;;;;;6.55;3.35;;;;;;;16.63;80.67;100586.50;5000568;28;20027;-81
2021/07/07 09:41:49;;;;;;;9.02;3.72;;;;;;;16.63;80.91;100594.66;4994397;28;20041;-81
2021/07/07 09:44:14;;;;;;;6.18;2.92;;;;;;;16.63;80.92;100594.66;4999457;28;20026;-81
2021/07/07 09:46:40;;;;;;;5.50;3.10;;;;;;;16.70;80.94;100600.88;4980046;28;20072;-81
2021/07/07 09:49:05;;;;;;;6.45;3.05;;;;;;;16.61;80.74;100595.94;4981419;28;20036;-81
2021/07/07 09:51:33;;;;;;;5.78;3.05;;;;;;;16.58;80.61;100599.91;4995738;28;20040;-81
2021/07/07 09:54:03;;;;;;;8.23;3.53;;;;;;;16.45;80.85;100600.00;5005565;28;20022;-81
2021/07/07 09:56:30;;;;;;;7.25;3.10;;;;;;;16.41;81.50;100609.66;5003923;28;20049;-81
2021/07/07 09:58:56;;;;;;;7.20;3.63;;;;;;;16.31;82.17;100604.69;4996412;28;20025;-81
2021/07/07 10:01:22;;;;;;;7.40;2.92;;;;;;;16.38;82.14;100605.47;4998045;28;20096;-81
2021/07/07 10:03:47;;;;;;;5.53;2.97;;;;;;;16.54;82.08;100615.00;5008306;28;20029;-81
2021/07/07 10:06:14;;;;;;;5.65;3.03;;;;;;;16.47;81.50;100593.31;4994112;28;20030;-81
2021/07/07 10:08:43;;;;;;;7.95;3.38;;;;;;;16.65;81.62;100608.84;4985753;28;20026;-82
2021/07/07 10:11:08;;;;;;;7.55;3.22;;;;;;;16.77;81.13;100613.56;4988405;28;20079;-82
2021/07/07 10:13:34;;;;;;;6.80;2.78;;;;;;;16.84;80.61;100619.81;5001926;28;20029;-81
2021/07/07 10:15:59;;;;;;;7.28;3.05;;;;;;;16.95;80.11;100615.56;4983812;28;20031;-81
2021/07/07 10:18:25;;;;;;;9.07;2.83;;;;;;;17.00;79.59;100623.88;5011831;28;20061;-79
2021/07/07 10:20:51;;;;;;;8.85;3.00;;;;;;;17.12;79.89;100625.66;5010932;28;20088;-82
2021/07/07 10:23:18;;;;;;;5.32;3.10;;;;;;;17.23;79.60;100620.56;5002238;28;20129;-82
2021/07/07 10:25:44;;;;;;;6.53;3.22;;;;;;;17.78;78.32;100623.31;4993058;28;20024;-80
2021/07/07 10:28:11;;;;;;;5.70;3.03;;;;;;;18.65;76.55;100625.75;4977635;28;20053;-81
2021/07/07 10:30:50;;;;;;;7.90;3.35;;;;;;;18.83;74.40;100639.34;5006791;28;20536;-81
2021/07/07 10:33:16;;;;;;;5.55;2.53;;;;;;;18.50;73.78;100625.34;5017938;28;20029;-81
2021/07/07 10:35:42;;;;;;;9.55;3.03;;;;;;;18.08;75.31;100644.34;4987832;28;20468;-81
2021/07/07 10:38:08;;;;;;;5.78;2.83;;;;;;;17.62;78.12;100648.38;4995209;28;20545;-81
2021/07/07 10:40:37;;;;;;;7.28;2.85;;;;;;;17.19;79.25;100652.75;4978596;28;20031;-81
2021/07/07 10:43:03;;;;;;;5.28;2.90;;;;;;;16.86;81.25;100653.84;4983308;28;20022;-82
2021/07/07 10:45:43;;;;;;;5.65;2.30;;;;;;;16.64;82.20;100657.91;4977906;28;20026;-82
2021/07/07 10:48:20;;;;;;;5.47;2.90;;;;;;;16.51;83.41;100666.16;4979894;28;20528;-81
2021/07/07 10:50:46;;;;;;;3.78;2.58;;;;;;;16.45;84.16;100665.13;4995764;28;20053;-80
2021/07/07 10:53:25;;;;;;;6.35;2.50;;;;;;;16.56;84.16;100667.16;4980476;28;20139;-80
2021/07/07 10:55:51;;;;;;;5.43;2.70;;;;;;;16.74;84.30;100665.59;5014901;28;20036;-80
2021/07/07 10:58:27;;;;;;;5.85;2.70;;;;;;;17.03;84.15;100678.59;4980380;28;20022;-80
2021/07/07 11:00:53;;;;;;;5.40;2.55;;;;;;;17.22;83.65;100670.50;4997276;28;20033;-80
2021/07/07 11:03:20;;;;;;;7.97;2.50;;;;;;;17.55;82.53;100681.09;4980280;28;20025;-81
2021/07/07 11:05:45;;;;;;;3.95;2.35;;;;;;;17.81;82.22;100669.16;4976530;28;20025;-82
2021/07/07 11:08:20;;;;;;;4.20;2.53;;;;;;;18.15;81.79;100670.44;4986325;28;20120;-80
2021/07/07 11:10:56;;;;;;;3.75;2.20;;;;;;;18.81;80.20;100679.59;4997855;28;20091;-81
2021/07/07 11:13:22;;;;;;;12.82;2.97;;;;;;;19.38;78.99;100676.41;5001221;28;20513;-81
2021/07/07 11:15:48;;;;;;;3.15;1.70;;;;;;;19.49;77.43;100670.13;4993245;28;20097;-82
2021/07/07 11:18:22;;;;;;;4.07;2.22;;;;;;;19.39;75.13;100688.97;4981814;28;20026;-81
2021/07/07 11:20:59;;;;;;;5.40;2.80;;;;;;;18.96;75.16;100694.69;4971400;28;20383;-82
2021/07/07 11:23:24;;;;;;;6.07;2.67;;;;;;;18.33;76.25;100696.78;4988829;28;20093;-82